Aérodrome :
LOGIN :

S'inscrire | Disclaimer

   EN    FR    IT 

 










Légende :    VFR   VFR Marginal   IFR   IFR Intensif   IFR Très Intensif
Visi : 
Plafond : 
>= 8 km
>= 3000ft
5 à 8 km
1000 à 3000 ft
1500m à 5 km
500 à 1000 ft
800 à 1500m
200 à 500 ft
< 800m
< 200 ft
Symboles :   Orages  Brouillard  Fortes neiges  Fortes précipitations  Vent > 20 kt
SIGMETs :   Divers  Orages  Givrage  Turbulence  Onde Orograph.  Cendres Volcan.







- Altitude de l'aérodrome : 436 ft
- Code IATA : ANG
- Voir les cartes d'approche


LFBU - Angoulême Brie Champniers

DERNIER METAR :
  • 241030Z AUTO 34005KT 270V040 9999 SCT025 SCT034 BKN064 20/13 Q1018 NOSIG

METARs EXPIRÉS :
  • 241000Z AUTO 32003KT 250V020 9999 FEW021 BKN060 OVC090 18/13 Q1018 NOSIG
  • 240930Z AUTO VRB03KT CAVOK 18/13 Q1018 NOSIG
  • 240900Z AUTO VRB01KT 9999 SCT015 OVC058 17/14 Q1017 TEMPO BKN010
  • 240830Z AUTO VRB02KT 9999 BKN010 BKN015 BKN054 16/14 Q1018 BECMG SCT040 BKN060
  • 240800Z AUTO 30003KT 270V330 8000 OVC008 16/14 Q1018 TEMPO BKN010

TAF TAF LFBU
Valide du 24 à 06h jusqu'au 25 à 06h UTC


240500Z 2406/2506 29007KT 9999 SCT040 BKN060
TEMPO 2406/2408 3000 RA BKN006
TEMPO 2408/2410 -RA BKN010
PROB40
TEMPO 2413/2420 4000 SHRA BKN025TCU FEW035CB
PROB30
TEMPO 2414/2418 VRB15G25KT 2500 TSRA SCT012 BKN030CB
Pas de NOTAMs connus pour ce terrain.
1 SIGMET publié pour la FIR Bordeaux (LFBB) :
 
Turbulence forte
LFBB SIGMET 1 VALID 240800/241200 LFPW
LFBB BORDEAUX FIR/UIR SEV TURB FCST WI N4245 W00030 - N4300 W00145 - N4430 W00145 - N4545 W00045 - N4615 E00130 - N4245 W00030 FL260/340 STNR NC=



MET'MAP, la Météo Aéronautique d'un coup d'oeil ! - Copyright ORBIFLY Décembre 2007 - Disclaimer

ORBIFLY MET'MAP TEAM :

Programmation & Développement : Alexandra Zaïnal
Conception & Développement : Baudouin d'Aumeries
Co-Programmation & Développement : Marc-Olivier Méhu
Soutien technique & logistique : Manuel Goepfert

Contact : metmap@orbifly.com




SOURCES & CREDITS :

   NOAA